createdAt,value
2018-02-13T00:00:39.012Z,1006.99
2018-02-13T00:01:38.988Z,1006.95
2018-02-13T00:02:38.963Z,1006.98
2018-02-13T00:03:38.938Z,1006.94
2018-02-13T00:04:38.914Z,1006.93
2018-02-13T00:05:38.890Z,1006.92
2018-02-13T00:06:38.864Z,1006.91
2018-02-13T00:07:38.841Z,1006.84
2018-02-13T00:08:38.819Z,1006.9
2018-02-13T00:09:38.798Z,1006.91
2018-02-13T00:10:38.767Z,1006.96
2018-02-13T00:11:38.743Z,1006.86
2018-02-13T00:12:38.720Z,1006.89
2018-02-13T00:13:38.694Z,1006.91
2018-02-13T00:14:38.671Z,1006.89
2018-02-13T00:15:38.646Z,1006.87
2018-02-13T00:16:38.624Z,1006.88
2018-02-13T00:17:38.596Z,1006.86
2018-02-13T00:18:38.572Z,1006.85
2018-02-13T00:19:38.548Z,1006.87
2018-02-13T00:20:38.525Z,1006.91
2018-02-13T00:21:38.498Z,1006.88
2018-02-13T00:22:38.478Z,1006.87
2018-02-13T00:23:38.448Z,1006.85
2018-02-13T00:24:38.424Z,1006.88
2018-02-13T00:25:38.400Z,1006.83
2018-02-13T00:26:38.375Z,1006.88
2018-02-13T00:27:38.352Z,1006.9
2018-02-13T00:28:38.326Z,1006.87
2018-02-13T00:29:38.304Z,1006.89
2018-02-13T00:30:38.279Z,1006.9
2018-02-13T00:31:38.253Z,1006.89
2018-02-13T00:32:38.227Z,1006.9
2018-02-13T00:33:38.206Z,1006.89
2018-02-13T00:34:38.183Z,1006.8
2018-02-13T00:35:38.165Z,1006.84
2018-02-13T00:36:38.134Z,1006.84
2018-02-13T00:37:38.106Z,1006.84
2018-02-13T00:38:38.082Z,1006.84
2018-02-13T00:39:38.058Z,1006.87
2018-02-13T00:40:38.033Z,1006.83
2018-02-13T00:41:38.009Z,1006.86
2018-02-13T00:42:37.990Z,1006.85
2018-02-13T00:43:37.957Z,1006.84
2018-02-13T00:44:37.934Z,1006.86
2018-02-13T00:45:37.908Z,1006.85
2018-02-13T00:46:37.884Z,1006.85
2018-02-13T00:47:37.860Z,1006.78
2018-02-13T00:48:37.835Z,1006.8
2018-02-13T00:49:37.814Z,1006.82
2018-02-13T00:50:37.789Z,1006.78
2018-02-13T00:51:37.830Z,1006.79
2018-02-13T00:52:37.737Z,1006.76
2018-02-13T00:53:37.716Z,1006.75
2018-02-13T00:54:37.687Z,1006.74
2018-02-13T00:55:37.663Z,1006.74
2018-02-13T00:56:37.637Z,1006.72
2018-02-13T00:57:37.616Z,1006.73
2018-02-13T00:58:37.589Z,1006.77
2018-02-13T00:59:37.565Z,1006.75
2018-02-13T01:00:37.545Z,1006.73
2018-02-13T01:01:37.515Z,1006.73
2018-02-13T01:02:37.491Z,1006.71
2018-02-13T01:03:37.466Z,1006.68
2018-02-13T01:04:37.444Z,1006.7
2018-02-13T01:05:37.420Z,1006.75
2018-02-13T01:06:37.394Z,1006.75
2018-02-13T01:07:37.372Z,1006.7
2018-02-13T01:08:37.349Z,1006.75
2018-02-13T01:09:37.321Z,1006.68
2018-02-13T01:10:37.295Z,1006.72
2018-02-13T01:11:37.326Z,1006.71
2018-02-13T01:12:37.247Z,1006.7
2018-02-13T01:13:37.222Z,1006.7
2018-02-13T01:14:37.199Z,1006.74
2018-02-13T01:15:37.375Z,1006.73
2018-02-13T01:16:37.148Z,1006.7
2018-02-13T01:17:37.124Z,1006.74
2018-02-13T01:18:37.100Z,1006.7
2018-02-13T01:19:37.076Z,1006.7
2018-02-13T01:20:37.050Z,1006.65
2018-02-13T01:21:37.024Z,1006.68
2018-02-13T01:22:37.004Z,1006.72
2018-02-13T01:23:36.977Z,1006.69
2018-02-13T01:24:36.951Z,1006.67
2018-02-13T01:25:36.925Z,1006.71
2018-02-13T01:26:36.902Z,1006.66
2018-02-13T01:27:36.878Z,1006.67
2018-02-13T01:28:36.854Z,1006.66
2018-02-13T01:29:36.829Z,1006.68
2018-02-13T01:30:36.803Z,1006.66
2018-02-13T01:31:36.779Z,1006.67
2018-02-13T01:32:36.754Z,1006.66
2018-02-13T01:33:36.730Z,1006.67
2018-02-13T01:34:36.705Z,1006.67
2018-02-13T01:35:36.681Z,1006.69
2018-02-13T01:36:36.657Z,1006.7
2018-02-13T01:37:36.635Z,1006.7
2018-02-13T01:38:36.609Z,1006.69
2018-02-13T01:39:36.583Z,1006.66
2018-02-13T01:40:36.557Z,1006.67
2018-02-13T01:41:36.532Z,1006.69
2018-02-13T01:42:36.507Z,1006.67
2018-02-13T01:43:36.482Z,1006.64
2018-02-13T01:44:36.464Z,1006.67
2018-02-13T01:45:36.434Z,1006.67
2018-02-13T01:46:36.409Z,1006.66
2018-02-13T01:47:36.386Z,1006.68
2018-02-13T01:48:36.359Z,1006.7
2018-02-13T01:49:36.334Z,1006.73
2018-02-13T01:50:36.310Z,1006.71
2018-02-13T01:51:36.286Z,1006.71
2018-02-13T01:52:36.261Z,1006.73
2018-02-13T01:53:36.236Z,1006.7
2018-02-13T01:54:36.210Z,1006.76
2018-02-13T01:55:36.187Z,1006.71
2018-02-13T01:56:36.164Z,1006.71
2018-02-13T01:57:36.140Z,1006.68
2018-02-13T01:58:36.113Z,1006.71
2018-02-13T01:59:36.089Z,1006.69
2018-02-13T02:00:36.063Z,1006.74
2018-02-13T02:01:36.039Z,1006.73
2018-02-13T02:02:36.014Z,1006.71
2018-02-13T02:03:35.989Z,1006.68
2018-02-13T02:04:35.964Z,1006.73
2018-02-13T02:05:35.942Z,1006.71
2018-02-13T02:06:35.914Z,1006.71
2018-02-13T02:07:35.891Z,1006.69
2018-02-13T02:08:35.864Z,1006.64
2018-02-13T02:09:35.840Z,1006.67
2018-02-13T02:10:35.816Z,1006.68
2018-02-13T02:11:35.791Z,1006.63
2018-02-13T02:12:35.780Z,1006.64
2018-02-13T02:13:35.742Z,1006.66
2018-02-13T02:14:35.719Z,1006.61
2018-02-13T02:15:35.691Z,1006.63
2018-02-13T02:16:35.668Z,1006.62
2018-02-13T02:17:35.693Z,1006.61
2018-02-13T02:18:35.621Z,1006.62
2018-02-13T02:19:35.592Z,1006.56
2018-02-13T02:20:35.571Z,1006.57
2018-02-13T02:21:35.542Z,1006.59
2018-02-13T02:22:35.518Z,1006.56
2018-02-13T02:23:35.520Z,1006.55
2018-02-13T02:24:35.493Z,1006.56
2018-02-13T02:25:35.449Z,1006.56
2018-02-13T02:26:35.419Z,1006.53
2018-02-13T02:27:35.411Z,1006.52
2018-02-13T02:28:35.372Z,1006.52
2018-02-13T02:29:35.345Z,1006.52
2018-02-13T02:30:35.335Z,1006.51
2018-02-13T02:31:35.298Z,1006.51
2018-02-13T02:32:35.321Z,1006.5
2018-02-13T02:33:35.247Z,1006.48
2018-02-13T02:34:35.223Z,1006.48
2018-02-13T02:35:35.197Z,1006.47
2018-02-13T02:36:35.172Z,1006.48
2018-02-13T02:37:35.148Z,1006.48
2018-02-13T02:38:35.122Z,1006.5
2018-02-13T02:39:35.101Z,1006.44
2018-02-13T02:40:35.072Z,1006.47
2018-02-13T02:41:35.052Z,1006.47
2018-02-13T02:42:35.025Z,1006.45
2018-02-13T02:43:35.002Z,1006.44
2018-02-13T02:44:34.975Z,1006.44
2018-02-13T02:45:34.950Z,1006.37
2018-02-13T02:46:34.926Z,1006.41
2018-02-13T02:47:34.901Z,1006.37
2018-02-13T02:48:34.877Z,1006.42
2018-02-13T02:49:34.852Z,1006.39
2018-02-13T02:50:34.824Z,1006.36
2018-02-13T02:51:34.813Z,1006.38
2018-02-13T02:52:34.777Z,1006.38
2018-02-13T02:53:34.756Z,1006.36
2018-02-13T02:54:34.728Z,1006.35
2018-02-13T02:55:34.707Z,1006.35
2018-02-13T02:56:34.683Z,1006.33
2018-02-13T02:57:34.657Z,1006.31
2018-02-13T02:58:34.627Z,1006.28
2018-02-13T02:59:34.605Z,1006.28
2018-02-13T03:00:34.578Z,1006.24
2018-02-13T03:01:34.551Z,1006.25
2018-02-13T03:02:34.528Z,1006.21
2018-02-13T03:03:34.504Z,1006.26
2018-02-13T03:04:34.480Z,1006.22
2018-02-13T03:05:34.455Z,1006.21
2018-02-13T03:06:34.431Z,1006.2
2018-02-13T03:07:34.405Z,1006.21
2018-02-13T03:08:34.381Z,1006.24
2018-02-13T03:09:34.354Z,1006.22
2018-02-13T03:10:34.329Z,1006.22
2018-02-13T03:11:34.309Z,1006.23
2018-02-13T03:12:34.279Z,1006.21
2018-02-13T03:13:34.258Z,1006.21
2018-02-13T03:14:34.230Z,1006.19
2018-02-13T03:15:34.408Z,1006.17
2018-02-13T03:16:34.182Z,1006.16
2018-02-13T03:17:34.156Z,1006.19
2018-02-13T03:18:34.132Z,1006.15
2018-02-13T03:19:34.107Z,1006.16
2018-02-13T03:20:34.081Z,1006.16
2018-02-13T03:21:34.056Z,1006.14
2018-02-13T03:22:34.033Z,1006.14
2018-02-13T03:23:34.007Z,1006.14
2018-02-13T03:24:33.985Z,1006.1
2018-02-13T03:25:33.958Z,1006.14
2018-02-13T03:26:33.933Z,1006.19
2018-02-13T03:27:33.915Z,1006.14
2018-02-13T03:28:33.883Z,1006.21
2018-02-13T03:29:33.859Z,1006.2
2018-02-13T03:30:33.835Z,1006.18
2018-02-13T03:31:33.810Z,1006.2
2018-02-13T03:32:33.789Z,1006.2
2018-02-13T03:33:33.810Z,1006.15
2018-02-13T03:34:33.737Z,1006.12
2018-02-13T03:35:33.713Z,1006.15
2018-02-13T03:36:33.685Z,1006.11
2018-02-13T03:37:33.662Z,1006.1
2018-02-13T03:38:33.635Z,1006.12
2018-02-13T03:39:33.611Z,1006.13
2018-02-13T03:40:33.587Z,1006.09
2018-02-13T03:41:33.562Z,1006.12
2018-02-13T03:42:33.565Z,1006.06
2018-02-13T03:43:33.564Z,1006.06
2018-02-13T03:44:33.488Z,1006.03
2018-02-13T03:45:33.470Z,1006.06
2018-02-13T03:46:33.440Z,1006.01
2018-02-13T03:47:33.414Z,1006.01
2018-02-13T03:48:33.393Z,1005.99
2018-02-13T03:49:33.365Z,1005.99
2018-02-13T03:50:33.341Z,1006.03
2018-02-13T03:51:33.316Z,1005.97
2018-02-13T03:52:33.293Z,1006.01
2018-02-13T03:53:33.317Z,1006.02
2018-02-13T03:54:33.242Z,1005.98
2018-02-13T03:55:33.218Z,1006.04
2018-02-13T03:56:33.191Z,1005.98
2018-02-13T03:57:33.168Z,1006.05
2018-02-13T03:58:33.146Z,1006.02
2018-02-13T03:59:33.120Z,1006
2018-02-13T04:00:33.097Z,1005.95
2018-02-13T04:01:33.075Z,1005.97
2018-02-13T04:02:33.046Z,1005.96
2018-02-13T04:03:33.020Z,1005.94
2018-02-13T04:04:32.997Z,1005.96
2018-02-13T04:05:32.971Z,1005.96
2018-02-13T04:06:32.950Z,1005.96
2018-02-13T04:07:32.921Z,1005.91
2018-02-13T04:08:32.896Z,1005.94
2018-02-13T04:09:32.876Z,1005.9
2018-02-13T04:10:32.850Z,1005.85
2018-02-13T04:11:32.823Z,1005.84
2018-02-13T04:12:32.851Z,1005.85
2018-02-13T04:13:32.773Z,1005.82
2018-02-13T04:14:32.749Z,1005.8
2018-02-13T04:15:32.725Z,1005.78
2018-02-13T04:16:32.700Z,1005.8
2018-02-13T04:17:32.675Z,1005.76
2018-02-13T04:18:32.650Z,1005.74
2018-02-13T04:19:32.625Z,1005.76
2018-02-13T04:20:32.602Z,1005.77
2018-02-13T04:21:32.577Z,1005.71
2018-02-13T04:22:32.551Z,1005.73
2018-02-13T04:23:32.528Z,1005.78
2018-02-13T04:24:32.502Z,1005.79
2018-02-13T04:25:32.480Z,1005.82
2018-02-13T04:26:32.452Z,1005.78
2018-02-13T04:27:32.481Z,1005.83
2018-02-13T04:28:32.403Z,1005.84
2018-02-13T04:29:32.376Z,1005.84
2018-02-13T04:30:32.352Z,1005.86
2018-02-13T04:31:32.328Z,1005.84
2018-02-13T04:32:32.305Z,1005.86
2018-02-13T04:33:32.312Z,1005.8
2018-02-13T04:34:32.255Z,1005.84
2018-02-13T04:35:32.230Z,1005.85
2018-02-13T04:36:32.205Z,1005.84
2018-02-13T04:37:32.187Z,1005.84
2018-02-13T04:38:32.155Z,1005.85
2018-02-13T04:39:32.137Z,1005.82
2018-02-13T04:40:32.115Z,1005.85
2018-02-13T04:41:32.080Z,1005.84
2018-02-13T04:42:32.056Z,1005.82
2018-02-13T04:43:32.035Z,1005.87
2018-02-13T04:44:32.005Z,1005.84
2018-02-13T04:45:31.984Z,1005.85
2018-02-13T04:46:31.966Z,1005.84
2018-02-13T04:47:31.933Z,1005.86
2018-02-13T04:48:31.908Z,1005.84
2018-02-13T04:49:31.882Z,1005.81
2018-02-13T04:50:31.858Z,1005.78
2018-02-13T04:51:31.833Z,1005.76
2018-02-13T04:52:31.807Z,1005.79
2018-02-13T04:53:31.783Z,1005.77
2018-02-13T04:54:31.810Z,1005.73
2018-02-13T04:55:31.734Z,1005.75
2018-02-13T04:56:31.758Z,1005.72
2018-02-13T04:57:31.684Z,1005.71
2018-02-13T04:58:31.658Z,1005.71
2018-02-13T04:59:31.684Z,1005.7
2018-02-13T05:00:31.609Z,1005.69
2018-02-13T05:01:31.586Z,1005.73
2018-02-13T05:02:31.560Z,1005.72
2018-02-13T05:03:31.537Z,1005.71
2018-02-13T05:04:31.619Z,1005.72
2018-02-13T05:05:31.486Z,1005.71
2018-02-13T05:06:31.461Z,1005.67
2018-02-13T05:07:31.438Z,1005.73
2018-02-13T05:08:31.416Z,1005.73
2018-02-13T05:09:31.436Z,1005.73
2018-02-13T05:10:31.362Z,1005.67
2018-02-13T05:11:31.341Z,1005.71
2018-02-13T05:12:31.314Z,1005.68
2018-02-13T05:13:31.287Z,1005.67
2018-02-13T05:14:31.263Z,1005.66
2018-02-13T05:15:31.239Z,1005.68
2018-02-13T05:16:31.214Z,1005.66
2018-02-13T05:17:31.191Z,1005.66
2018-02-13T05:18:31.164Z,1005.67
2018-02-13T05:19:31.140Z,1005.65
2018-02-13T05:20:31.116Z,1005.65
2018-02-13T05:21:31.091Z,1005.62
2018-02-13T05:22:31.069Z,1005.64
2018-02-13T05:23:31.046Z,1005.65
2018-02-13T05:24:31.015Z,1005.64
2018-02-13T05:25:30.988Z,1005.63
2018-02-13T05:26:30.965Z,1005.63
2018-02-13T05:27:30.939Z,1005.63
2018-02-13T05:28:30.914Z,1005.59
2018-02-13T05:29:30.892Z,1005.58
2018-02-13T05:30:30.863Z,1005.59
2018-02-13T05:31:30.852Z,1005.63
2018-02-13T05:32:30.815Z,1005.66
2018-02-13T05:33:30.788Z,1005.61
2018-02-13T05:34:30.765Z,1005.62
2018-02-13T05:35:30.737Z,1005.59
2018-02-13T05:36:30.714Z,1005.58
2018-02-13T05:37:30.691Z,1005.62
2018-02-13T05:38:30.667Z,1005.58
2018-02-13T05:39:30.638Z,1005.57
2018-02-13T05:40:30.616Z,1005.61
2018-02-13T05:41:30.588Z,1005.61
2018-02-13T05:42:30.564Z,1005.61
2018-02-13T05:43:30.539Z,1005.6
2018-02-13T05:44:30.515Z,1005.61
2018-02-13T05:45:30.493Z,1005.55
2018-02-13T05:46:30.463Z,1005.57
2018-02-13T05:47:30.437Z,1005.54
2018-02-13T05:48:30.414Z,1005.55
2018-02-13T05:49:30.388Z,1005.51
2018-02-13T05:50:30.365Z,1005.55
2018-02-13T05:51:30.338Z,1005.57
2018-02-13T05:52:30.314Z,1005.59
2018-02-13T05:53:30.289Z,1005.58
2018-02-13T05:54:30.264Z,1005.58
2018-02-13T05:55:30.246Z,1005.54
2018-02-13T05:56:30.217Z,1005.53
2018-02-13T05:57:30.188Z,1005.56
2018-02-13T05:58:30.163Z,1005.53
2018-02-13T05:59:30.140Z,1005.54
2018-02-13T06:00:30.132Z,1005.52
2018-02-13T06:01:30.087Z,1005.5
2018-02-13T06:02:30.064Z,1005.51
2018-02-13T06:03:30.041Z,1005.54
2018-02-13T06:04:30.018Z,1005.59
2018-02-13T06:05:29.987Z,1005.53
2018-02-13T06:06:29.962Z,1005.6
2018-02-13T06:07:29.938Z,1005.56
2018-02-13T06:08:29.912Z,1005.57
2018-02-13T06:09:29.889Z,1005.54
2018-02-13T06:10:29.862Z,1005.6
2018-02-13T06:11:29.840Z,1005.56
2018-02-13T06:12:29.811Z,1005.61
2018-02-13T06:13:29.816Z,1005.61
2018-02-13T06:14:29.763Z,1005.58
2018-02-13T06:15:29.787Z,1005.6
2018-02-13T06:16:29.710Z,1005.59
2018-02-13T06:17:29.693Z,1005.59
2018-02-13T06:18:29.665Z,1005.56
2018-02-13T06:19:29.641Z,1005.57
2018-02-13T06:20:29.609Z,1005.55
2018-02-13T06:21:29.586Z,1005.58
2018-02-13T06:22:29.559Z,1005.56
2018-02-13T06:23:29.540Z,1005.58
2018-02-13T06:24:29.508Z,1005.57
2018-02-13T06:25:29.489Z,1005.59
2018-02-13T06:26:29.482Z,1005.54
2018-02-13T06:27:29.436Z,1005.56
2018-02-13T06:28:29.411Z,1005.6
2018-02-13T06:29:29.383Z,1005.55
2018-02-13T06:30:29.357Z,1005.55
2018-02-13T06:31:29.331Z,1005.55
2018-02-13T06:32:29.307Z,1005.5
2018-02-13T06:33:29.281Z,1005.51
2018-02-13T06:34:29.259Z,1005.5
2018-02-13T06:35:29.231Z,1005.48
2018-02-13T06:36:29.211Z,1005.51
2018-02-13T06:37:29.178Z,1005.47
2018-02-13T06:38:29.157Z,1005.47
2018-02-13T06:39:29.130Z,1005.45
2018-02-13T06:40:29.104Z,1005.45
2018-02-13T06:41:29.080Z,1005.45
2018-02-13T06:42:29.053Z,1005.45
2018-02-13T06:43:29.034Z,1005.43
2018-02-13T06:44:29.004Z,1005.4
2018-02-13T06:45:28.978Z,1005.46
2018-02-13T06:46:28.957Z,1005.44
2018-02-13T06:47:28.928Z,1005.41
2018-02-13T06:48:28.904Z,1005.44
2018-02-13T06:49:28.877Z,1005.44
2018-02-13T06:50:28.852Z,1005.43
2018-02-13T06:51:28.830Z,1005.47
2018-02-13T06:52:28.805Z,1005.43
2018-02-13T06:53:28.776Z,1005.46
2018-02-13T06:54:28.756Z,1005.4
2018-02-13T06:55:28.731Z,1005.42
2018-02-13T06:56:28.700Z,1005.41
2018-02-13T06:57:28.679Z,1005.36
2018-02-13T06:58:28.650Z,1005.36
2018-02-13T06:59:28.631Z,1005.36
2018-02-13T07:00:28.600Z,1005.38
2018-02-13T07:01:28.586Z,1005.34
2018-02-13T07:02:28.567Z,1005.35
2018-02-13T07:03:28.527Z,1005.34
2018-02-13T07:04:28.503Z,1005.37
2018-02-13T07:05:28.483Z,1005.32
2018-02-13T07:06:28.447Z,1005.33
2018-02-13T07:07:28.427Z,1005.3
2018-02-13T07:08:28.400Z,1005.33
2018-02-13T07:09:28.373Z,1005.34
2018-02-13T07:10:28.350Z,1005.35
2018-02-13T07:11:28.324Z,1005.31
2018-02-13T07:12:28.298Z,1005.32
2018-02-13T07:13:28.272Z,1005.35
2018-02-13T07:14:28.248Z,1005.33
2018-02-13T07:15:28.222Z,1005.31
2018-02-13T07:16:28.400Z,1005.34
2018-02-13T07:17:28.174Z,1005.36
2018-02-13T07:18:28.146Z,1005.34
2018-02-13T07:19:28.121Z,1005.37
2018-02-13T07:20:28.096Z,1005.35
2018-02-13T07:21:28.072Z,1005.32
2018-02-13T07:22:28.049Z,1005.36
2018-02-13T07:23:28.023Z,1005.32
2018-02-13T07:24:27.998Z,1005.36
2018-02-13T07:25:27.971Z,1005.35
2018-02-13T07:26:27.947Z,1005.33
2018-02-13T07:27:27.921Z,1005.36
2018-02-13T07:28:27.897Z,1005.39
2018-02-13T07:29:27.872Z,1005.38
2018-02-13T07:30:27.846Z,1005.38
2018-02-13T07:31:27.824Z,1005.36
2018-02-13T07:32:27.796Z,1005.37
2018-02-13T07:33:27.773Z,1005.38
2018-02-13T07:34:27.748Z,1005.38
2018-02-13T07:35:27.721Z,1005.37
2018-02-13T07:36:27.700Z,1005.4
2018-02-13T07:37:27.671Z,1005.3
2018-02-13T07:38:27.647Z,1005.34
2018-02-13T07:39:27.626Z,1005.36
2018-02-13T07:40:27.596Z,1005.37
2018-02-13T07:41:27.572Z,1005.35
2018-02-13T07:42:27.547Z,1005.35
2018-02-13T07:43:27.523Z,1005.35
2018-02-13T07:44:27.497Z,1005.37
2018-02-13T07:45:27.473Z,1005.37
2018-02-13T07:46:27.448Z,1005.36
2018-02-13T07:47:27.424Z,1005.4
2018-02-13T07:48:27.397Z,1005.34
2018-02-13T07:49:27.373Z,1005.37
2018-02-13T07:50:27.346Z,1005.35
2018-02-13T07:51:27.322Z,1005.4
2018-02-13T07:52:27.298Z,1005.35
2018-02-13T07:53:27.273Z,1005.37
2018-02-13T07:54:27.248Z,1005.35
2018-02-13T07:55:27.222Z,1005.39
2018-02-13T07:56:27.198Z,1005.36
2018-02-13T07:57:27.178Z,1005.36
2018-02-13T07:58:27.152Z,1005.39
2018-02-13T07:59:27.125Z,1005.42
2018-02-13T08:00:27.101Z,1005.39
2018-02-13T08:01:27.078Z,1005.38
2018-02-13T08:02:27.053Z,1005.4
2018-02-13T08:03:27.076Z,1005.39
2018-02-13T08:04:27.007Z,1005.43
2018-02-13T08:05:26.976Z,1005.36
2018-02-13T08:06:26.951Z,1005.38
2018-02-13T08:07:26.927Z,1005.38
2018-02-13T08:08:26.905Z,1005.41
2018-02-13T08:09:26.879Z,1005.4
2018-02-13T08:10:26.854Z,1005.43
2018-02-13T08:11:26.828Z,1005.34
2018-02-13T08:12:26.803Z,1005.37
2018-02-13T08:13:26.779Z,1005.35
2018-02-13T08:14:26.753Z,1005.34
2018-02-13T08:15:26.737Z,1005.34
2018-02-13T08:16:26.706Z,1005.33
2018-02-13T08:17:26.679Z,1005.34
2018-02-13T08:18:26.658Z,1005.33
2018-02-13T08:19:26.631Z,1005.33
2018-02-13T08:20:26.629Z,1005.33
2018-02-13T08:21:26.587Z,1005.28
2018-02-13T08:22:26.560Z,1005.3
2018-02-13T08:23:26.534Z,1005.35
2018-02-13T08:24:26.509Z,1005.33
2018-02-13T08:25:26.488Z,1005.29
2018-02-13T08:26:26.463Z,1005.26
2018-02-13T08:27:26.489Z,1005.32
2018-02-13T08:28:26.424Z,1005.32
2018-02-13T08:29:26.388Z,1005.29
2018-02-13T08:30:26.364Z,1005.36
2018-02-13T08:31:26.364Z,1005.35
2018-02-13T08:32:26.317Z,1005.38
2018-02-13T08:33:26.292Z,1005.33
2018-02-13T08:34:26.266Z,1005.35
2018-02-13T08:35:26.243Z,1005.33
2018-02-13T08:36:26.225Z,1005.33
2018-02-13T08:37:26.205Z,1005.33
2018-02-13T08:38:26.171Z,1005.33
2018-02-13T08:39:26.147Z,1005.34
2018-02-13T08:40:26.124Z,1005.37
2018-02-13T08:41:26.100Z,1005.33
2018-02-13T08:42:26.076Z,1005.4
2018-02-13T08:43:26.053Z,1005.39
2018-02-13T08:44:26.032Z,1005.39
2018-02-13T08:45:26.005Z,1005.37
2018-02-13T08:46:25.980Z,1005.42
2018-02-13T08:47:25.957Z,1005.39
2018-02-13T08:48:25.934Z,1005.39
2018-02-13T08:49:25.913Z,1005.36
2018-02-13T08:50:25.891Z,1005.33
2018-02-13T08:51:25.866Z,1005.3
2018-02-13T08:52:25.844Z,1005.35
2018-02-13T08:53:25.831Z,1005.25
2018-02-13T08:54:25.803Z,1005.26
2018-02-13T08:55:25.777Z,1005.32
2018-02-13T08:56:25.755Z,1005.27
2018-02-13T08:57:25.736Z,1005.3
2018-02-13T08:58:25.714Z,1005.35
2018-02-13T08:59:25.691Z,1005.36
2018-02-13T09:00:25.671Z,1005.34
2018-02-13T09:01:25.654Z,1005.34
2018-02-13T09:02:25.628Z,1005.32
2018-02-13T09:03:25.609Z,1005.37
2018-02-13T09:04:25.587Z,1005.37
2018-02-13T09:05:25.566Z,1005.37
2018-02-13T09:06:25.544Z,1005.39
2018-02-13T09:07:25.523Z,1005.4
2018-02-13T09:08:25.505Z,1005.36
2018-02-13T09:09:25.484Z,1005.42
2018-02-13T09:10:25.467Z,1005.41
2018-02-13T09:11:25.445Z,1005.4
2018-02-13T09:12:25.425Z,1005.35
2018-02-13T09:13:25.408Z,1005.4
2018-02-13T09:14:25.386Z,1005.31
2018-02-13T09:15:25.370Z,1005.31
2018-02-13T09:16:25.557Z,1005.35
2018-02-13T09:17:25.339Z,1005.32
2018-02-13T09:18:25.314Z,1005.33
2018-02-13T09:19:25.298Z,1005.33
2018-02-13T09:20:25.282Z,1005.29
2018-02-13T09:21:25.260Z,1005.28
2018-02-13T09:22:25.240Z,1005.28
2018-02-13T09:23:25.223Z,1005.32
2018-02-13T09:24:25.204Z,1005.32
2018-02-13T09:25:25.187Z,1005.33
2018-02-13T09:26:25.167Z,1005.33
2018-02-13T09:27:25.149Z,1005.34
2018-02-13T09:28:25.134Z,1005.33
2018-02-13T09:29:25.116Z,1005.34
2018-02-13T09:30:25.094Z,1005.33
2018-02-13T09:31:25.076Z,1005.33
2018-02-13T09:32:25.058Z,1005.3
2018-02-13T09:33:25.043Z,1005.27
2018-02-13T09:34:25.027Z,1005.26
2018-02-13T09:35:25.009Z,1005.23
2018-02-13T09:36:24.993Z,1005.25
2018-02-13T09:37:24.976Z,1005.17
2018-02-13T09:38:24.957Z,1005.13
2018-02-13T09:39:24.941Z,1005.13
2018-02-13T09:40:24.923Z,1005.15
2018-02-13T09:41:24.908Z,1005.16
2018-02-13T09:42:24.895Z,1005.17
2018-02-13T09:43:24.874Z,1005.17
2018-02-13T09:44:24.856Z,1005.17
2018-02-13T09:45:24.846Z,1005.11
2018-02-13T09:46:24.828Z,1005.12
2018-02-13T09:47:24.803Z,1005.09
2018-02-13T09:48:24.788Z,1005.07
2018-02-13T09:49:24.769Z,1005.06
2018-02-13T09:50:24.754Z,1005.13
2018-02-13T09:51:24.735Z,1005.14
2018-02-13T09:52:24.716Z,1005.15
2018-02-13T09:53:24.700Z,1005.15
2018-02-13T09:54:24.683Z,1005.15
2018-02-13T09:55:24.666Z,1005.13
2018-02-13T09:56:24.699Z,1005.16
2018-02-13T09:57:24.631Z,1005.11
2018-02-13T09:58:24.612Z,1005.08
2018-02-13T09:59:24.600Z,1005.1
2018-02-13T10:00:24.581Z,1005.1
2018-02-13T10:01:24.571Z,1005.12
2018-02-13T10:02:24.548Z,1005.1
2018-02-13T10:03:24.531Z,1005.09
2018-02-13T10:04:24.516Z,1005.09
2018-02-13T10:05:24.497Z,1005.11
2018-02-13T10:06:24.478Z,1005.1
2018-02-13T10:07:24.462Z,1005.09
2018-02-13T10:08:24.451Z,1005.13
2018-02-13T10:09:24.425Z,1005.05
2018-02-13T10:10:24.408Z,1005.08
2018-02-13T10:11:24.393Z,1005.04
2018-02-13T10:12:24.377Z,1004.99
2018-02-13T10:13:24.356Z,1004.98
2018-02-13T10:14:24.339Z,1004.99
2018-02-13T10:15:24.319Z,1004.99
2018-02-13T10:16:24.305Z,1004.97
2018-02-13T10:17:24.286Z,1004.97
2018-02-13T10:18:24.267Z,1004.96
2018-02-13T10:19:24.251Z,1004.98
2018-02-13T10:20:24.232Z,1005.01
2018-02-13T10:21:24.213Z,1004.97
2018-02-13T10:22:24.196Z,1005.01
2018-02-13T10:23:24.178Z,1004.98
2018-02-13T10:24:24.166Z,1004.97
2018-02-13T10:25:24.140Z,1004.99
2018-02-13T10:26:24.132Z,1004.99
2018-02-13T10:27:24.109Z,1004.95
2018-02-13T10:28:24.097Z,1004.96
2018-02-13T10:29:24.074Z,1004.93
2018-02-13T10:30:24.091Z,1004.95
2018-02-13T10:31:24.038Z,1004.92
2018-02-13T10:32:24.026Z,1004.95
2018-02-13T10:33:24.003Z,1004.91
2018-02-13T10:34:24.041Z,1004.95
2018-02-13T10:35:23.971Z,1004.89
2018-02-13T10:36:23.958Z,1004.9
2018-02-13T10:37:23.940Z,1004.89
2018-02-13T10:38:23.926Z,1004.95
2018-02-13T10:39:23.910Z,1004.9
2018-02-13T10:40:23.892Z,1004.92
2018-02-13T10:41:23.878Z,1004.9
2018-02-13T10:42:23.860Z,1004.88
2018-02-13T10:43:23.849Z,1004.89
2018-02-13T10:44:23.830Z,1004.92
2018-02-13T10:45:23.816Z,1004.86
2018-02-13T10:46:23.798Z,1004.81
2018-02-13T10:47:23.785Z,1004.78
2018-02-13T10:48:23.763Z,1004.84
2018-02-13T10:49:23.746Z,1004.76
2018-02-13T10:50:23.731Z,1004.78
2018-02-13T10:51:23.712Z,1004.78
2018-02-13T10:52:23.697Z,1004.71
2018-02-13T10:53:23.678Z,1004.73
2018-02-13T10:54:23.662Z,1004.7
2018-02-13T10:55:23.643Z,1004.72
2018-02-13T10:56:23.629Z,1004.67
2018-02-13T10:57:23.612Z,1004.66
2018-02-13T10:58:23.592Z,1004.68
2018-02-13T10:59:23.576Z,1004.71
2018-02-13T11:00:23.559Z,1004.71
2018-02-13T11:01:23.539Z,1004.66
2018-02-13T11:02:23.524Z,1004.68
2018-02-13T11:03:23.506Z,1004.64
2018-02-13T11:04:23.488Z,1004.63
2018-02-13T11:05:23.473Z,1004.75
2018-02-13T11:06:23.454Z,1004.62
2018-02-13T11:07:23.440Z,1004.65
2018-02-13T11:08:23.422Z,1004.67
2018-02-13T11:09:23.405Z,1004.67
2018-02-13T11:10:23.388Z,1004.67
2018-02-13T11:11:23.371Z,1004.68
2018-02-13T11:12:23.356Z,1004.64
2018-02-13T11:13:23.395Z,1004.59
2018-02-13T11:14:23.332Z,1004.6
2018-02-13T11:15:23.311Z,1004.61
2018-02-13T11:16:23.498Z,1004.58
2018-02-13T11:17:23.281Z,1004.48
2018-02-13T11:18:23.266Z,1004.53
2018-02-13T11:19:23.250Z,1004.49
2018-02-13T11:20:23.239Z,1004.45
2018-02-13T11:21:23.229Z,1004.42
2018-02-13T11:22:23.208Z,1004.4
2018-02-13T11:23:23.194Z,1004.38
2018-02-13T11:24:23.180Z,1004.32
2018-02-13T11:25:23.165Z,1004.43
2018-02-13T11:26:23.153Z,1004.38
2018-02-13T11:27:23.136Z,1004.36
2018-02-13T11:28:23.126Z,1004.32
2018-02-13T11:29:23.107Z,1004.3
2018-02-13T11:30:23.099Z,1004.32
2018-02-13T11:31:23.080Z,1004.34
2018-02-13T11:32:23.067Z,1004.32
2018-02-13T11:33:23.051Z,1004.3
2018-02-13T11:34:23.043Z,1004.29
2018-02-13T11:35:23.025Z,1004.32
2018-02-13T11:36:23.011Z,1004.3
2018-02-13T11:37:22.994Z,1004.26
2018-02-13T11:38:22.981Z,1004.29
2018-02-13T11:39:22.966Z,1004.28
2018-02-13T11:40:22.952Z,1004.21
2018-02-13T11:41:22.939Z,1004.24
2018-02-13T11:42:22.926Z,1004.3
2018-02-13T11:43:22.909Z,1004.28
2018-02-13T11:44:22.900Z,1004.3
2018-02-13T11:45:22.881Z,1004.28
2018-02-13T11:46:22.867Z,1004.31
2018-02-13T11:47:22.858Z,1004.23
2018-02-13T11:48:22.848Z,1004.26
2018-02-13T11:49:22.860Z,1004.23
2018-02-13T11:50:22.864Z,1004.27
2018-02-13T11:51:22.798Z,1004.17
2018-02-13T11:52:22.787Z,1004.2
2018-02-13T11:53:22.773Z,1004.15
2018-02-13T11:54:22.759Z,1004.17
2018-02-13T11:55:22.745Z,1004.12
2018-02-13T11:56:22.731Z,1004.11
2018-02-13T11:57:22.718Z,1004.17
2018-02-13T11:58:22.708Z,1004.16
2018-02-13T11:59:22.688Z,1004.12
2018-02-13T12:00:22.677Z,1004.14
2018-02-13T12:01:22.662Z,1004.16
2018-02-13T12:02:22.645Z,1004.15
2018-02-13T12:03:22.637Z,1004.12
2018-02-13T12:04:22.620Z,1004.14
2018-02-13T12:05:22.609Z,1004.07
2018-02-13T12:06:22.588Z,1004.17
2018-02-13T12:07:22.575Z,1004.14
2018-02-13T12:08:22.611Z,1004.11